createdAt,value
2019-06-26T00:02:13.780Z,17.90
2019-06-26T00:04:42.497Z,17.80
2019-06-26T00:07:11.228Z,17.80
2019-06-26T00:09:40.037Z,17.80
2019-06-26T00:12:08.850Z,17.70
2019-06-26T00:14:38.924Z,17.70
2019-06-26T00:17:07.911Z,17.70
2019-06-26T00:19:36.640Z,17.60
2019-06-26T00:22:05.457Z,17.60
2019-06-26T00:24:34.181Z,17.60
2019-06-26T00:27:02.914Z,17.60
2019-06-26T00:29:31.719Z,17.60
2019-06-26T00:32:00.507Z,17.60
2019-06-26T00:34:29.334Z,17.50
2019-06-26T00:36:58.065Z,17.50
2019-06-26T00:39:26.793Z,17.50
2019-06-26T00:41:55.516Z,17.50
2019-06-26T00:44:24.313Z,17.50
2019-06-26T00:46:53.034Z,17.40
2019-06-26T00:49:21.820Z,17.40
2019-06-26T00:51:50.655Z,17.40
2019-06-26T00:54:19.368Z,17.30
2019-06-26T00:56:48.090Z,17.30
2019-06-26T00:59:16.813Z,17.30
2019-06-26T01:01:45.530Z,17.20
2019-06-26T01:04:15.891Z,17.20
2019-06-26T01:06:44.600Z,17.10
2019-06-26T01:09:14.466Z,17.10
2019-06-26T01:11:43.569Z,17.10
2019-06-26T01:14:12.520Z,17.10
2019-06-26T01:16:41.253Z,17.00
2019-06-26T01:19:10.048Z,17.00
2019-06-26T01:21:38.829Z,17.00
2019-06-26T01:24:07.645Z,17.00
2019-06-26T01:26:36.572Z,17.00
2019-06-26T01:29:05.380Z,17.00
2019-06-26T01:31:34.098Z,17.00
2019-06-26T01:34:02.862Z,16.90
2019-06-26T01:36:31.602Z,16.90
2019-06-26T01:39:00.374Z,17.00
2019-06-26T01:41:29.089Z,16.90
2019-06-26T01:44:10.585Z,16.90
2019-06-26T01:46:28.200Z,17.00
2019-06-26T01:48:56.917Z,16.90
2019-06-26T01:51:25.649Z,17.00
2019-06-26T01:53:54.364Z,17.00
2019-06-26T01:56:23.234Z,16.90
2019-06-26T01:58:51.957Z,17.00
2019-06-26T02:01:21.266Z,16.90
2019-06-26T02:03:50.055Z,17.00
2019-06-26T02:06:18.809Z,16.90
2019-06-26T02:08:47.681Z,16.90
2019-06-26T02:11:16.494Z,17.00
2019-06-26T02:13:45.221Z,16.90
2019-06-26T02:16:13.944Z,16.90
2019-06-26T02:18:44.308Z,16.90
2019-06-26T02:21:13.030Z,17.00
2019-06-26T02:23:41.793Z,17.00
2019-06-26T02:26:10.559Z,16.90
2019-06-26T02:28:39.234Z,16.90
2019-06-26T02:31:07.944Z,17.00
2019-06-26T02:33:36.676Z,17.00
2019-06-26T02:36:05.502Z,17.00
2019-06-26T02:38:34.213Z,17.10
2019-06-26T02:41:02.931Z,17.00
2019-06-26T02:43:31.668Z,17.00
2019-06-26T02:46:00.390Z,17.00
2019-06-26T02:48:29.109Z,17.10
2019-06-26T02:50:57.908Z,17.20
2019-06-26T02:53:26.746Z,17.40
2019-06-26T02:55:55.497Z,17.40
2019-06-26T02:58:24.229Z,17.60
2019-06-26T03:00:53.016Z,17.70
2019-06-26T03:03:21.838Z,17.70
2019-06-26T03:05:50.630Z,17.80
2019-06-26T03:08:19.436Z,17.80
2019-06-26T03:10:48.146Z,17.70
2019-06-26T03:13:16.867Z,17.80
2019-06-26T03:15:45.585Z,17.80
2019-06-26T03:18:14.304Z,17.80
2019-06-26T03:20:45.971Z,17.80
2019-06-26T03:23:14.880Z,17.80
2019-06-26T03:25:43.609Z,17.80
2019-06-26T03:28:12.379Z,17.80
2019-06-26T03:30:41.174Z,17.70
2019-06-26T03:33:09.912Z,17.80
2019-06-26T03:35:40.709Z,17.70
2019-06-26T03:38:09.072Z,17.70
2019-06-26T03:40:37.788Z,17.80
2019-06-26T03:43:06.524Z,17.70
2019-06-26T03:45:35.244Z,17.80
2019-06-26T03:48:03.952Z,17.80
2019-06-26T03:50:32.675Z,17.70
2019-06-26T03:53:03.474Z,17.70
2019-06-26T03:55:32.144Z,17.80
2019-06-26T03:58:02.750Z,17.80
2019-06-26T04:00:42.943Z,18.00
2019-06-26T04:03:11.881Z,18.00
2019-06-26T04:05:40.620Z,18.10
2019-06-26T04:08:09.461Z,18.30
2019-06-26T04:10:38.173Z,18.20
2019-06-26T04:13:07.146Z,18.30
2019-06-26T04:15:42.184Z,18.40
2019-06-26T04:18:06.247Z,18.50
2019-06-26T04:20:34.965Z,18.60
2019-06-26T04:23:03.713Z,18.60
2019-06-26T04:25:32.436Z,18.80
2019-06-26T04:28:01.160Z,18.90
2019-06-26T04:30:29.888Z,18.90
2019-06-26T04:32:58.723Z,18.90
2019-06-26T04:35:27.567Z,18.90
2019-06-26T04:37:56.345Z,19.00
2019-06-26T04:40:25.041Z,18.80
2019-06-26T04:42:53.778Z,18.90
2019-06-26T04:45:22.553Z,19.00
2019-06-26T04:47:51.278Z,19.00
2019-06-26T04:50:22.013Z,19.10
2019-06-26T04:52:50.749Z,19.10
2019-06-26T04:55:19.540Z,19.20
2019-06-26T04:57:48.274Z,19.20
2019-06-26T05:00:17.399Z,19.20
2019-06-26T05:02:46.118Z,19.30
2019-06-26T05:05:15.743Z,19.30
2019-06-26T05:07:44.470Z,19.30
2019-06-26T05:10:13.760Z,19.50
2019-06-26T05:12:42.476Z,19.60
2019-06-26T05:15:12.320Z,19.60
2019-06-26T05:17:41.036Z,19.60
2019-06-26T05:20:10.477Z,19.90
2019-06-26T05:22:39.295Z,19.90
2019-06-26T05:25:08.322Z,20.00
2019-06-26T05:27:37.052Z,20.20
2019-06-26T05:30:07.450Z,20.00
2019-06-26T05:32:36.170Z,20.10
2019-06-26T05:35:09.545Z,20.30
2019-06-26T05:37:38.276Z,20.30
2019-06-26T05:40:11.723Z,20.50
2019-06-26T05:42:40.446Z,20.50
2019-06-26T05:45:09.936Z,20.50
2019-06-26T05:47:38.698Z,20.60
2019-06-26T05:50:08.022Z,20.60
2019-06-26T05:52:36.767Z,20.80
2019-06-26T05:55:06.876Z,21.20
2019-06-26T05:57:35.594Z,21.10
2019-06-26T06:00:07.257Z,21.10
2019-06-26T06:02:36.015Z,21.30
2019-06-26T06:05:06.728Z,21.30
2019-06-26T06:07:35.464Z,21.30
2019-06-26T06:10:05.164Z,21.50
2019-06-26T06:12:33.893Z,21.50
2019-06-26T06:15:02.811Z,21.60
2019-06-26T06:17:31.533Z,21.70
2019-06-26T06:20:00.283Z,21.70
2019-06-26T06:22:28.996Z,21.80
2019-06-26T06:24:57.838Z,21.80
2019-06-26T06:27:26.547Z,21.80
2019-06-26T06:29:55.280Z,21.80
2019-06-26T06:32:24.014Z,21.90
2019-06-26T06:34:52.735Z,21.90
2019-06-26T06:37:21.481Z,21.80
2019-06-26T06:39:50.200Z,21.90
2019-06-26T06:42:18.919Z,22.20
2019-06-26T06:44:47.690Z,22.20
2019-06-26T06:47:16.413Z,22.40
2019-06-26T06:49:45.120Z,22.70
2019-06-26T06:52:16.643Z,22.70
2019-06-26T06:54:44.229Z,22.70
2019-06-26T06:57:13.011Z,22.90
2019-06-26T06:59:41.748Z,23.00
2019-06-26T07:02:10.463Z,23.40
2019-06-26T07:04:39.192Z,23.60
2019-06-26T07:07:07.930Z,23.60
2019-06-26T07:09:36.656Z,23.90
2019-06-26T07:12:05.547Z,24.00
2019-06-26T07:14:34.262Z,24.00
2019-06-26T07:17:16.038Z,24.10
2019-06-26T07:19:33.357Z,24.00
2019-06-26T07:22:02.086Z,24.00
2019-06-26T07:24:30.810Z,23.80
2019-06-26T07:26:59.554Z,23.80
2019-06-26T07:29:28.304Z,23.80
2019-06-26T07:31:56.994Z,23.90
2019-06-26T07:34:25.804Z,24.10
2019-06-26T07:36:54.535Z,24.10
2019-06-26T07:39:23.324Z,24.30
2019-06-26T07:41:52.057Z,24.40
2019-06-26T07:44:20.768Z,24.30
2019-06-26T07:46:49.502Z,24.40
2019-06-26T07:49:18.233Z,24.30
2019-06-26T07:51:46.969Z,24.40
2019-06-26T07:54:15.717Z,24.60
2019-06-26T07:56:44.427Z,24.70
2019-06-26T07:59:13.154Z,24.80
2019-06-26T08:01:41.888Z,24.80
2019-06-26T08:04:10.689Z,24.60
2019-06-26T08:06:39.391Z,24.60
2019-06-26T08:09:08.152Z,24.60
2019-06-26T08:11:36.873Z,24.80
2019-06-26T08:14:05.776Z,25.00
2019-06-26T08:16:34.605Z,25.00
2019-06-26T08:19:03.425Z,25.10
2019-06-26T08:21:32.164Z,25.30
2019-06-26T08:24:00.890Z,25.30
2019-06-26T08:26:29.605Z,25.10
2019-06-26T08:28:58.340Z,25.00
2019-06-26T08:31:27.064Z,25.00
2019-06-26T08:33:55.779Z,25.10
2019-06-26T08:36:24.504Z,25.20
2019-06-26T08:38:53.260Z,25.50
2019-06-26T08:41:22.048Z,25.60
2019-06-26T08:43:50.764Z,25.60
2019-06-26T08:46:19.490Z,25.60
2019-06-26T08:48:51.755Z,25.60
2019-06-26T08:51:18.733Z,25.70
2019-06-26T08:53:47.448Z,25.70
2019-06-26T08:56:16.183Z,25.70
2019-06-26T08:58:45.596Z,25.50
2019-06-26T09:01:14.256Z,25.60
2019-06-26T09:03:42.989Z,25.80
2019-06-26T09:06:11.722Z,25.80
2019-06-26T09:08:40.461Z,26.00
2019-06-26T09:11:09.176Z,26.10
2019-06-26T09:13:37.895Z,26.30
2019-06-26T09:16:06.626Z,26.30
2019-06-26T09:18:36.326Z,26.30
2019-06-26T09:21:05.067Z,26.40
2019-06-26T09:23:36.446Z,26.40
2019-06-26T09:26:05.272Z,26.30
2019-06-26T09:28:33.989Z,26.40
2019-06-26T09:31:02.764Z,26.60
2019-06-26T09:33:32.609Z,26.70
2019-06-26T09:36:01.557Z,26.60
2019-06-26T09:38:30.305Z,26.50
2019-06-26T09:40:59.071Z,26.70
2019-06-26T09:43:27.895Z,26.70
2019-06-26T09:45:56.622Z,26.80
2019-06-26T09:48:25.396Z,26.60
2019-06-26T09:50:54.132Z,26.40
2019-06-26T09:53:22.928Z,26.60
2019-06-26T09:55:51.633Z,26.80
2019-06-26T09:58:20.388Z,26.70
2019-06-26T10:00:49.107Z,26.50
2019-06-26T10:03:17.911Z,26.30
2019-06-26T10:05:46.643Z,26.40
2019-06-26T10:08:15.372Z,26.60
2019-06-26T10:10:44.116Z,26.60
2019-06-26T10:13:12.868Z,26.50
2019-06-26T10:15:41.580Z,26.50
2019-06-26T10:18:10.321Z,26.60
2019-06-26T10:20:39.108Z,26.60
2019-06-26T10:23:07.870Z,26.80
2019-06-26T10:25:36.596Z,27.10
2019-06-26T10:28:05.322Z,26.90
2019-06-26T10:30:34.040Z,26.90
2019-06-26T10:33:02.816Z,26.70
2019-06-26T10:35:31.496Z,26.70
2019-06-26T10:38:00.226Z,26.70
2019-06-26T10:40:29.064Z,26.50
2019-06-26T10:42:57.874Z,26.80
2019-06-26T10:45:26.671Z,27.00
2019-06-26T10:47:55.454Z,27.10
2019-06-26T10:50:24.168Z,27.20
2019-06-26T10:52:52.976Z,27.10
2019-06-26T10:55:21.696Z,27.00
2019-06-26T10:57:50.483Z,27.20
2019-06-26T11:00:20.877Z,27.50
2019-06-26T11:02:49.592Z,27.50
2019-06-26T11:05:18.593Z,27.60
2019-06-26T11:07:47.305Z,27.60
2019-06-26T11:10:16.636Z,27.60
2019-06-26T11:12:48.808Z,27.40
2019-06-26T11:15:17.079Z,27.40
2019-06-26T11:17:45.809Z,27.50
2019-06-26T11:20:15.141Z,27.60
2019-06-26T11:22:43.880Z,27.60
2019-06-26T11:25:12.669Z,27.60
2019-06-26T11:27:41.416Z,27.80
2019-06-26T11:30:12.838Z,28.00
2019-06-26T11:32:41.586Z,27.80
2019-06-26T11:35:10.576Z,27.60
2019-06-26T11:37:39.300Z,27.60
2019-06-26T11:40:09.628Z,27.60
2019-06-26T11:42:38.400Z,27.60
2019-06-26T11:45:08.195Z,27.90
2019-06-26T11:47:37.324Z,27.80
2019-06-26T11:50:09.884Z,27.80
2019-06-26T11:52:38.819Z,27.90
2019-06-26T11:55:11.264Z,27.90
2019-06-26T11:57:40.011Z,27.90
2019-06-26T12:00:14.656Z,27.90
2019-06-26T12:02:43.396Z,27.70
2019-06-26T12:05:13.940Z,27.70
2019-06-26T12:07:42.642Z,27.40
2019-06-26T12:10:11.569Z,27.60
2019-06-26T12:12:40.457Z,27.60
2019-06-26T12:15:09.976Z,27.80
2019-06-26T12:17:38.801Z,27.90
2019-06-26T12:20:18.342Z,27.90
2019-06-26T12:22:38.115Z,27.70
2019-06-26T12:25:07.163Z,27.80
2019-06-26T12:27:35.907Z,27.70
2019-06-26T12:30:06.841Z,28.30
2019-06-26T12:32:41.900Z,28.10
2019-06-26T12:35:08.478Z,28.30
2019-06-26T12:37:38.325Z,28.40
2019-06-26T12:40:08.233Z,28.40
2019-06-26T12:42:37.396Z,28.40
2019-06-26T12:45:07.554Z,28.40
2019-06-26T12:47:36.253Z,28.40
2019-06-26T12:50:08.025Z,28.60
2019-06-26T12:52:36.793Z,28.40
2019-06-26T12:55:06.403Z,28.30
2019-06-26T12:57:35.240Z,28.20
2019-06-26T13:00:09.029Z,28.40
2019-06-26T13:02:37.745Z,28.50
2019-06-26T13:05:07.270Z,28.50
2019-06-26T13:07:36.009Z,28.70
2019-06-26T13:10:07.665Z,28.40
2019-06-26T13:12:36.996Z,28.30
2019-06-26T13:15:08.398Z,28.40
2019-06-26T13:17:37.181Z,28.10
2019-06-26T13:20:10.384Z,28.00
2019-06-26T13:22:39.498Z,28.00
2019-06-26T13:25:08.596Z,28.00
2019-06-26T13:27:37.314Z,27.90
2019-06-26T13:30:09.149Z,27.90
2019-06-26T13:32:37.841Z,27.80
2019-06-26T13:35:07.575Z,27.70
2019-06-26T13:37:36.318Z,27.50
2019-06-26T13:40:06.344Z,27.40
2019-06-26T13:42:35.073Z,27.50
2019-06-26T13:45:07.485Z,27.30
2019-06-26T13:47:36.228Z,27.10
2019-06-26T13:50:07.099Z,27.30
2019-06-26T13:52:35.835Z,27.50
2019-06-26T13:55:06.155Z,27.40
2019-06-26T13:57:34.977Z,27.30
2019-06-26T14:00:06.361Z,27.30
2019-06-26T14:02:35.080Z,27.30
2019-06-26T14:05:04.100Z,27.10
2019-06-26T14:07:32.833Z,27.00
2019-06-26T14:10:01.749Z,27.00
2019-06-26T14:12:30.568Z,27.10
2019-06-26T14:14:59.270Z,27.20
2019-06-26T14:17:28.062Z,27.40
2019-06-26T14:19:56.888Z,27.50
2019-06-26T14:22:25.619Z,27.70
2019-06-26T14:24:54.453Z,27.70
2019-06-26T14:27:23.221Z,27.90
2019-06-26T14:29:51.944Z,27.90
2019-06-26T14:32:20.678Z,27.70
2019-06-26T14:34:49.396Z,27.90
2019-06-26T14:37:18.161Z,28.00
2019-06-26T14:39:46.873Z,28.30
2019-06-26T14:42:15.594Z,28.40
2019-06-26T14:44:44.403Z,28.30
2019-06-26T14:47:13.099Z,27.90
2019-06-26T14:49:41.836Z,27.60
2019-06-26T14:52:10.613Z,27.50
2019-06-26T14:54:39.333Z,27.40
2019-06-26T14:57:08.066Z,27.20
2019-06-26T14:59:36.789Z,27.00
2019-06-26T15:02:05.573Z,27.00
2019-06-26T15:04:34.291Z,27.10
2019-06-26T15:07:03.006Z,27.10
2019-06-26T15:09:31.737Z,27.10
2019-06-26T15:12:00.468Z,27.00
2019-06-26T15:14:29.183Z,27.00
2019-06-26T15:16:57.908Z,26.90
2019-06-26T15:19:26.732Z,26.90
2019-06-26T15:21:58.848Z,26.90
2019-06-26T15:24:26.669Z,27.10
2019-06-26T15:26:55.392Z,27.10
2019-06-26T15:29:24.140Z,27.10
2019-06-26T15:31:52.887Z,27.00
2019-06-26T15:34:21.610Z,26.90
2019-06-26T15:36:50.333Z,26.90
2019-06-26T15:39:19.105Z,26.80
2019-06-26T15:41:47.777Z,26.80
2019-06-26T15:44:16.539Z,26.80
2019-06-26T15:46:45.236Z,26.80
2019-06-26T15:49:13.958Z,26.60
2019-06-26T15:51:42.678Z,26.40
2019-06-26T15:54:11.400Z,26.30
2019-06-26T15:56:40.127Z,26.20
2019-06-26T15:59:08.847Z,26.10
2019-06-26T16:01:37.574Z,26.10
2019-06-26T16:04:06.292Z,26.00
2019-06-26T16:06:35.015Z,26.00
2019-06-26T16:09:04.912Z,26.00
2019-06-26T16:11:33.641Z,25.90
2019-06-26T16:14:02.399Z,25.90
2019-06-26T16:16:32.055Z,25.90
2019-06-26T16:19:03.105Z,25.90
2019-06-26T16:21:30.981Z,25.90
2019-06-26T16:23:59.697Z,25.90
2019-06-26T16:26:28.430Z,25.90
2019-06-26T16:28:57.146Z,25.90
2019-06-26T16:31:25.869Z,25.90
2019-06-26T16:33:54.588Z,26.00
2019-06-26T16:36:23.312Z,25.90
2019-06-26T16:38:52.029Z,25.90
2019-06-26T16:41:20.762Z,25.90
2019-06-26T16:43:49.490Z,25.90
2019-06-26T16:46:18.310Z,25.80
2019-06-26T16:48:46.987Z,25.80
2019-06-26T16:51:15.707Z,25.80
2019-06-26T16:53:44.438Z,25.70
2019-06-26T16:56:13.229Z,25.60
2019-06-26T16:58:42.146Z,25.60
2019-06-26T17:01:10.872Z,25.60
2019-06-26T17:03:39.600Z,25.50
2019-06-26T17:06:08.328Z,25.50
2019-06-26T17:08:37.055Z,25.50
2019-06-26T17:11:05.791Z,25.40
2019-06-26T17:13:34.512Z,25.30
2019-06-26T17:16:03.225Z,25.30
2019-06-26T17:18:31.963Z,25.20
2019-06-26T17:21:00.687Z,25.20
2019-06-26T17:23:29.504Z,25.20
2019-06-26T17:25:58.241Z,25.20
2019-06-26T17:28:26.962Z,25.10
2019-06-26T17:30:55.680Z,25.10
2019-06-26T17:33:24.407Z,25.00
2019-06-26T17:35:53.147Z,25.00
2019-06-26T17:38:21.870Z,25.10
2019-06-26T17:40:50.642Z,25.00
2019-06-26T17:43:19.392Z,25.00
2019-06-26T17:45:48.098Z,24.90
2019-06-26T17:48:16.829Z,24.90
2019-06-26T17:50:45.614Z,24.90
2019-06-26T17:53:21.619Z,24.90
2019-06-26T17:55:44.723Z,24.90
2019-06-26T17:58:13.452Z,24.90
2019-06-26T18:00:44.655Z,24.90
2019-06-26T18:03:13.382Z,24.80
2019-06-26T18:05:42.915Z,24.80
2019-06-26T18:08:11.643Z,24.70
2019-06-26T18:10:40.365Z,24.60
2019-06-26T18:13:09.104Z,24.60
2019-06-26T18:15:37.847Z,24.50
2019-06-26T18:18:06.582Z,24.50
2019-06-26T18:20:35.384Z,24.50
2019-06-26T18:23:07.619Z,24.50
2019-06-26T18:25:34.501Z,24.40
2019-06-26T18:28:03.231Z,24.30
2019-06-26T18:30:31.961Z,24.30
2019-06-26T18:33:00.694Z,24.30
2019-06-26T18:35:29.413Z,24.20
2019-06-26T18:37:58.141Z,24.20
2019-06-26T18:40:27.037Z,24.00
2019-06-26T18:42:55.720Z,24.00
2019-06-26T18:45:24.450Z,23.90
2019-06-26T18:47:53.210Z,23.90
2019-06-26T18:50:21.939Z,23.70
2019-06-26T18:52:50.704Z,23.60
2019-06-26T18:55:19.441Z,23.50
2019-06-26T18:57:48.158Z,23.30
2019-06-26T19:00:18.895Z,23.10
2019-06-26T19:02:47.621Z,22.90
2019-06-26T19:05:16.357Z,22.80
2019-06-26T19:07:45.178Z,22.70
2019-06-26T19:10:14.321Z,22.60
2019-06-26T19:12:43.057Z,22.40
2019-06-26T19:15:12.478Z,22.40
2019-06-26T19:17:42.601Z,22.40
2019-06-26T19:20:13.083Z,22.30
2019-06-26T19:22:41.788Z,22.40
2019-06-26T19:25:10.914Z,22.40
2019-06-26T19:27:39.608Z,22.40
2019-06-26T19:30:09.143Z,22.40
2019-06-26T19:32:37.898Z,22.40
2019-06-26T19:35:18.453Z,22.30
2019-06-26T19:37:37.735Z,22.40
2019-06-26T19:40:08.873Z,22.30
2019-06-26T19:42:37.219Z,22.30
2019-06-26T19:45:07.832Z,22.30
2019-06-26T19:47:36.574Z,22.20
2019-06-26T19:50:07.680Z,22.20
2019-06-26T19:52:36.626Z,22.10
2019-06-26T19:55:06.323Z,22.10
2019-06-26T19:57:35.078Z,21.90
2019-06-26T20:00:04.970Z,21.70
2019-06-26T20:02:33.693Z,21.60
2019-06-26T20:05:02.421Z,21.40
2019-06-26T20:07:31.143Z,21.20
2019-06-26T20:10:01.829Z,21.00
2019-06-26T20:12:30.271Z,20.70
2019-06-26T20:14:59.034Z,20.50
2019-06-26T20:17:27.794Z,20.20
2019-06-26T20:19:56.597Z,20.00
2019-06-26T20:22:25.349Z,19.70
2019-06-26T20:24:57.216Z,19.50
2019-06-26T20:27:24.448Z,19.30
2019-06-26T20:29:53.164Z,19.20
2019-06-26T20:32:21.898Z,19.00
2019-06-26T20:34:50.626Z,19.00
2019-06-26T20:37:19.357Z,18.90
2019-06-26T20:39:48.086Z,18.80
2019-06-26T20:42:16.797Z,18.80
2019-06-26T20:44:45.538Z,18.80
2019-06-26T20:47:14.264Z,18.70
2019-06-26T20:49:52.602Z,18.70
2019-06-26T20:52:13.407Z,18.60
2019-06-26T20:54:42.156Z,18.60
2019-06-26T20:57:10.878Z,18.60
2019-06-26T20:59:39.628Z,18.50
2019-06-26T21:03:03.112Z,18.40
2019-06-26T21:05:31.967Z,18.20
2019-06-26T21:08:02.668Z,18.20
2019-06-26T21:10:31.491Z,18.20
2019-06-26T21:13:00.403Z,18.10
2019-06-26T21:15:31.645Z,18.20
2019-06-26T21:18:00.423Z,18.20
2019-06-26T21:20:29.321Z,18.30
2019-06-26T21:22:58.146Z,18.40
2019-06-26T21:25:27.031Z,18.30
2019-06-26T21:27:55.753Z,18.30
2019-06-26T21:30:24.692Z,18.30
2019-06-26T21:32:53.439Z,18.20
2019-06-26T21:35:22.228Z,18.10
2019-06-26T21:37:51.052Z,18.00
2019-06-26T21:40:19.856Z,17.90
2019-06-26T21:42:48.666Z,17.90
2019-06-26T21:45:20.748Z,17.80
2019-06-26T21:47:49.552Z,17.80
2019-06-26T21:50:18.284Z,18.00
2019-06-26T21:52:47.035Z,18.10
2019-06-26T21:55:15.737Z,18.10
2019-06-26T21:57:44.476Z,18.00
2019-06-26T22:00:14.015Z,18.00
2019-06-26T22:02:42.825Z,17.90
2019-06-26T22:05:12.426Z,17.80
2019-06-26T22:07:41.247Z,17.80
2019-06-26T22:10:10.620Z,17.70
2019-06-26T22:12:39.354Z,17.60
2019-06-26T22:15:08.578Z,17.60
2019-06-26T22:17:37.309Z,17.50
2019-06-26T22:20:12.167Z,17.50
2019-06-26T22:22:38.275Z,17.40
2019-06-26T22:25:09.011Z,17.50
2019-06-26T22:27:37.732Z,17.40
2019-06-26T22:30:09.468Z,17.50
2019-06-26T22:32:38.313Z,17.40
2019-06-26T22:35:07.792Z,17.40
2019-06-26T22:37:36.589Z,17.40
2019-06-26T22:40:06.237Z,17.40
2019-06-26T22:42:34.945Z,17.40
2019-06-26T22:45:03.979Z,17.40
2019-06-26T22:47:32.744Z,17.40
2019-06-26T22:50:03.770Z,17.30
2019-06-26T22:52:32.506Z,17.30
2019-06-26T22:55:01.248Z,17.20
2019-06-26T22:57:30.045Z,17.20
2019-06-26T22:59:58.802Z,17.10
2019-06-26T23:02:27.528Z,17.10
2019-06-26T23:04:56.243Z,17.20
2019-06-26T23:07:24.979Z,17.20
2019-06-26T23:09:53.743Z,17.20
2019-06-26T23:12:22.481Z,17.20
2019-06-26T23:14:52.331Z,17.20
2019-06-26T23:17:21.209Z,17.10
2019-06-26T23:19:50.023Z,17.10
2019-06-26T23:22:19.258Z,17.10
2019-06-26T23:24:47.982Z,17.10
2019-06-26T23:27:16.725Z,17.10
2019-06-26T23:29:45.452Z,17.20
2019-06-26T23:32:14.190Z,17.30
2019-06-26T23:34:42.994Z,17.30
2019-06-26T23:37:11.742Z,17.30
2019-06-26T23:39:40.546Z,17.30
2019-06-26T23:42:09.291Z,17.20
2019-06-26T23:44:38.027Z,17.20
2019-06-26T23:47:06.767Z,17.10
2019-06-26T23:49:35.849Z,17.20
2019-06-26T23:52:04.594Z,17.20
2019-06-26T23:54:33.382Z,17.20
2019-06-26T23:57:02.135Z,17.20
2019-06-26T23:59:30.925Z,17.20
